Time;durP1;ratioP1;P1;durP2;ratioP2;P2;SDS_P1;SDS_P2;PMS_P1;PMS_P2;Temp;Humidity;BMP_temperature;BMP_pressure;BME280_temperature;BME280_humidity;BME280_pressure;Samples;Min_cycle;Max_cycle;Signal;HPM_P1;HPM_P2
2021/11/15 00:00:49;;;;;;;34.83;23.25;;;;;;;6.18;81.05;97133.97;5093382;28;20081;-63
2021/11/15 00:03:17;;;;;;;39.72;24.40;;;;;;;6.16;81.14;97127.97;5093286;28;20081;-62
2021/11/15 00:05:43;;;;;;;33.67;23.85;;;;;;;6.13;81.89;97130.59;5093307;28;20020;-66
2021/11/15 00:08:09;;;;;;;39.70;27.25;;;;;;;6.15;81.80;97135.78;5093212;28;20112;-64
2021/11/15 00:10:35;;;;;;;37.30;27.30;;;;;;;6.17;82.13;97126.25;5092845;28;20026;-65
2021/11/15 00:13:01;;;;;;;36.42;23.40;;;;;;;6.19;81.84;97127.06;5093170;28;20453;-66
2021/11/15 00:15:29;;;;;;;38.47;26.50;;;;;;;6.21;82.02;97127.91;5093134;28;20073;-66
2021/11/15 00:17:57;;;;;;;37.30;24.90;;;;;;;6.19;82.13;97132.25;5093182;28;20034;-63
2021/11/15 00:20:24;;;;;;;36.10;24.25;;;;;;;6.21;82.02;97129.66;5092961;28;20047;-67
2021/11/15 00:22:49;;;;;;;35.47;21.95;;;;;;;6.22;82.16;97132.22;5093027;28;20433;-63
2021/11/15 00:25:15;;;;;;;38.50;24.98;;;;;;;6.25;81.94;97136.53;5093142;28;20067;-62
2021/11/15 00:27:41;;;;;;;35.80;24.83;;;;;;;6.27;82.07;97134.78;5093119;28;20028;-67
2021/11/15 00:30:09;;;;;;;37.38;24.27;;;;;;;6.27;81.89;97132.19;5093095;28;20028;-65
2021/11/15 00:32:35;;;;;;;36.05;25.75;;;;;;;6.28;82.06;97133.88;5093051;28;20055;-65
2021/11/15 00:35:01;;;;;;;34.72;23.70;;;;;;;6.29;82.03;97125.25;5092915;28;20105;-64
2021/11/15 00:37:27;;;;;;;35.08;23.10;;;;;;;6.33;82.50;97132.13;5092956;28;20111;-66
2021/11/15 00:39:53;;;;;;;33.47;22.83;;;;;;;6.36;82.28;97129.47;5093089;28;20174;-66
2021/11/15 00:42:18;;;;;;;34.15;24.17;;;;;;;6.37;82.19;97128.59;5092952;28;20019;-63
2021/11/15 00:44:44;;;;;;;37.25;25.33;;;;;;;6.39;82.25;97131.19;5092952;28;20028;-66
2021/11/15 00:47:10;;;;;;;34.13;24.00;;;;;;;6.45;82.44;97136.31;5092889;28;20393;-65
2021/11/15 00:49:36;;;;;;;37.65;24.25;;;;;;;6.45;82.23;97136.31;5092857;28;20394;-62
2021/11/15 00:52:03;;;;;;;34.15;25.77;;;;;;;6.47;81.96;97124.13;5092903;28;20102;-68
2021/11/15 00:54:29;;;;;;;35.88;24.52;;;;;;;6.49;81.77;97132.78;5092883;28;20024;-62
2021/11/15 00:56:54;;;;;;;36.70;25.92;;;;;;;6.45;82.01;97125.91;5092752;28;20154;-67
2021/11/15 00:59:20;;;;;;;40.97;25.25;;;;;;;6.47;81.80;97125.91;5092948;28;20020;-62
2021/11/15 01:01:46;;;;;;;41.25;26.50;;;;;;;6.50;81.97;97128.47;5092746;28;20016;-62
2021/11/15 01:04:12;;;;;;;34.08;24.27;;;;;;;6.51;81.92;97130.16;5092566;28;20052;-63
2021/11/15 01:06:37;;;;;;;29.33;22.25;;;;;;;6.49;82.05;97124.13;5092799;28;20021;-65
2021/11/15 01:09:04;;;;;;;33.58;24.40;;;;;;;6.41;81.72;97126.84;5092666;28;20021;-67
2021/11/15 01:11:30;;;;;;;32.08;22.55;;;;;;;6.42;81.76;97120.75;5092569;28;20020;-63
2021/11/15 01:13:56;;;;;;;33.22;22.17;;;;;;;6.43;81.63;97123.31;5092580;28;20496;-66
2021/11/15 01:16:22;;;;;;;34.33;24.73;;;;;;;6.47;81.67;97125.91;5092775;28;20031;-63
2021/11/15 01:18:50;;;;;;;37.80;25.02;;;;;;;6.50;81.74;97133.66;5092460;28;20047;-61
2021/11/15 01:21:17;;;;;;;36.42;23.60;;;;;;;6.49;81.78;97130.19;5092603;28;20043;-65
2021/11/15 01:23:43;;;;;;;43.63;27.77;;;;;;;6.45;81.68;97134.53;5096023;28;20106;-65
2021/11/15 01:26:10;;;;;;;39.65;27.02;;;;;;;6.49;81.73;97132.78;5096202;28;20032;-66
2021/11/15 01:28:36;;;;;;;45.25;30.58;;;;;;;6.53;81.39;97141.41;5096121;28;20485;-63
2021/11/15 01:31:02;;;;;;;35.15;25.63;;;;;;;6.54;81.92;97137.94;5096099;28;20021;-64
2021/11/15 01:33:28;;;;;;;42.65;29.13;;;;;;;6.59;81.95;97143.06;5096158;28;20477;-61
2021/11/15 01:35:53;;;;;;;32.75;24.58;;;;;;;6.61;81.63;97133.50;5096084;28;20103;-63
2021/11/15 01:38:19;;;;;;;33.17;23.65;;;;;;;6.60;81.83;97137.88;5096014;28;20027;-63
2021/11/15 01:40:44;;;;;;;35.30;24.70;;;;;;;6.60;81.84;97137.00;5095978;28;20028;-67
2021/11/15 01:43:10;;;;;;;37.25;23.15;;;;;;;6.60;81.92;97145.66;5095852;28;20032;-65
2021/11/15 01:45:39;;;;;;;34.88;24.50;;;;;;;6.60;82.15;97145.66;5095821;28;20040;-64
2021/11/15 01:48:06;;;;;;;35.05;25.52;;;;;;;6.62;81.95;97138.69;5095841;28;20379;-64
2021/11/15 01:50:35;;;;;;;39.45;26.70;;;;;;;6.55;82.38;97144.84;5095688;28;20027;-61
2021/11/15 01:53:02;;;;;;;35.33;24.02;;;;;;;6.59;82.47;97148.28;5095684;28;20428;-63
2021/11/15 01:55:29;;;;;;;37.72;24.10;;;;;;;6.58;82.40;97139.59;5095612;28;20073;-65
2021/11/15 01:57:55;;;;;;;38.45;25.63;;;;;;;6.59;82.48;97140.47;5095604;28;20099;-61
2021/11/15 02:00:29;;;;;;;37.60;26.02;;;;;;;6.61;82.38;97143.91;5095728;28;20121;-61
2021/11/15 02:02:56;;;;;;;34.47;25.33;;;;;;;6.61;82.38;97144.78;5095580;28;20027;-66
2021/11/15 02:05:22;;;;;;;30.90;22.15;;;;;;;6.64;82.42;97146.47;5095381;28;20077;-65
2021/11/15 02:07:48;;;;;;;33.88;23.80;;;;;;;6.61;82.32;97133.50;5095527;28;20428;-65
2021/11/15 02:10:14;;;;;;;34.20;22.67;;;;;;;6.62;82.54;97138.69;5095672;28;20024;-64
2021/11/15 02:12:40;;;;;;;34.20;22.15;;;;;;;6.64;82.82;97130.88;5095371;28;20496;-61
2021/11/15 02:15:10;;;;;;;36.58;24.13;;;;;;;6.69;82.79;97139.47;5095334;28;20028;-65
2021/11/15 02:17:38;;;;;;;36.92;25.00;;;;;;;6.65;82.86;97127.41;5095424;28;20085;-64
2021/11/15 02:20:08;;;;;;;45.28;24.60;;;;;;;6.66;83.14;97134.31;5094894;28;20040;-64
2021/11/15 02:22:34;;;;;;;36.90;24.85;;;;;;;6.66;83.13;97134.31;5095083;28;20071;-62
2021/11/15 02:25:02;;;;;;;39.10;24.25;;;;;;;6.66;82.84;97134.31;5095146;28;20063;-62
2021/11/15 02:27:28;;;;;;;35.95;25.38;;;;;;;6.68;83.05;97130.81;5095168;28;20026;-61
2021/11/15 02:29:54;;;;;;;34.92;24.65;;;;;;;6.75;82.76;97135.94;5094927;28;20107;-63
2021/11/15 02:32:20;;;;;;;35.67;24.88;;;;;;;6.78;82.53;97125.50;5094858;28;20024;-64
2021/11/15 02:34:45;;;;;;;32.60;23.10;;;;;;;6.79;82.43;97128.06;5094773;28;20024;-63
2021/11/15 02:37:11;;;;;;;34.92;23.08;;;;;;;6.82;82.09;97134.97;5094983;28;20020;-64
2021/11/15 02:39:36;;;;;;;39.90;23.63;;;;;;;6.85;81.88;97128.84;5094894;28;20026;-66
2021/11/15 02:42:02;;;;;;;30.83;22.30;;;;;;;6.87;81.78;97132.31;5094710;28;20058;-66
2021/11/15 02:44:28;;;;;;;31.98;22.58;;;;;;;6.88;81.58;97141.81;5094704;28;20050;-63
2021/11/15 02:46:54;;;;;;;36.85;21.95;;;;;;;6.86;81.65;97141.00;5094744;28;20031;-66
2021/11/15 02:49:20;;;;;;;33.97;22.25;;;;;;;6.79;81.78;97137.59;5093420;28;20043;-65
2021/11/15 02:51:45;;;;;;;36.10;22.83;;;;;;;6.78;81.73;97138.50;5094508;28;20470;-65
2021/11/15 02:54:11;;;;;;;31.35;23.13;;;;;;;6.67;81.93;97138.63;5094438;28;20100;-64
2021/11/15 02:56:40;;;;;;;30.63;23.73;;;;;;;6.66;81.71;97139.53;5094437;28;20056;-66
2021/11/15 02:59:05;;;;;;;31.73;23.25;;;;;;;6.68;81.72;97142.94;5094463;28;20107;-63
2021/11/15 03:01:31;;;;;;;31.73;21.65;;;;;;;6.68;81.72;97137.75;5094573;28;20103;-63
2021/11/15 03:03:56;;;;;;;30.92;22.08;;;;;;;6.70;81.23;97142.06;5094302;28;20208;-62
2021/11/15 03:06:22;;;;;;;30.02;22.25;;;;;;;6.72;81.38;97143.78;5094314;28;20016;-68
2021/11/15 03:08:48;;;;;;;30.02;22.17;;;;;;;6.69;81.37;97148.13;5094420;28;20099;-62
2021/11/15 03:11:13;;;;;;;34.38;22.08;;;;;;;6.81;81.05;97143.66;5094253;28;20059;-66
2021/11/15 03:13:40;;;;;;;34.90;23.35;;;;;;;6.83;80.68;97144.47;5094150;28;20044;-64
2021/11/15 03:16:06;;;;;;;30.27;21.92;;;;;;;6.87;80.51;97141.00;5094263;28;20073;-65
2021/11/15 03:18:35;;;;;;;28.58;21.23;;;;;;;6.90;80.55;97140.94;5093877;28;20038;-63
2021/11/15 03:21:07;;;;;;;28.90;21.30;;;;;;;6.89;80.41;97139.22;5094087;28;20473;-66
2021/11/15 03:23:35;;;;;;;27.05;20.88;;;;;;;6.95;80.80;97138.25;5094019;28;20101;-62
2021/11/15 03:26:02;;;;;;;30.73;21.83;;;;;;;6.99;80.98;97139.09;5094007;28;20026;-67
2021/11/15 03:28:32;;;;;;;30.20;21.55;;;;;;;7.00;80.84;97143.41;5093908;28;20135;-67
2021/11/15 03:31:08;;;;;;;30.30;21.00;;;;;;;7.00;80.78;97135.59;5093880;28;20048;-64
2021/11/15 03:33:36;;;;;;;28.83;20.52;;;;;;;7.03;80.85;97127.75;5094112;28;20059;-64
2021/11/15 03:36:02;;;;;;;31.15;21.08;;;;;;;7.04;80.77;97138.13;5093703;28;20013;-66
2021/11/15 03:38:28;;;;;;;23.70;18.50;;;;;;;7.05;80.50;97137.25;5093667;28;20106;-65
2021/11/15 03:40:56;;;;;;;29.00;20.13;;;;;;;7.03;80.51;97138.16;5093775;28;20103;-65
2021/11/15 03:43:22;;;;;;;29.70;19.65;;;;;;;7.02;80.57;97137.31;5092301;28;20077;-68
2021/11/15 03:45:49;;;;;;;27.88;20.08;;;;;;;6.98;80.80;97143.41;5092937;28;20052;-67
2021/11/15 03:48:15;;;;;;;28.38;20.13;;;;;;;6.98;80.73;97138.22;5093717;28;20099;-65
2021/11/15 03:50:41;;;;;;;23.88;19.38;;;;;;;7.01;80.42;97138.16;5093633;28;20027;-64
2021/11/15 03:53:09;;;;;;;28.52;20.27;;;;;;;7.03;80.50;97143.34;5093657;28;20028;-65
2021/11/15 03:55:35;;;;;;;24.45;18.30;;;;;;;7.05;80.57;97134.63;5093468;28;20049;-64
2021/11/15 03:58:01;;;;;;;26.27;18.77;;;;;;;7.05;80.26;97142.44;5093387;28;20033;-64
2021/11/15 04:00:30;;;;;;;28.08;19.75;;;;;;;7.04;80.23;97142.47;5093490;28;20107;-64
2021/11/15 04:03:02;;;;;;;27.70;19.52;;;;;;;7.04;80.23;97139.88;5093415;28;20466;-62
2021/11/15 04:05:31;;;;;;;33.65;21.02;;;;;;;7.02;80.03;97139.03;5093434;28;20024;-66
2021/11/15 04:07:57;;;;;;;25.23;20.40;;;;;;;7.03;79.83;97141.63;5093420;28;20053;-62
2021/11/15 04:10:30;;;;;;;29.77;20.42;;;;;;;7.04;79.98;97147.66;5093293;28;20023;-65
2021/11/15 04:13:05;;;;;;;30.30;21.63;;;;;;;7.02;79.93;97139.91;5093390;28;20470;-63
2021/11/15 04:15:31;;;;;;;30.20;20.67;;;;;;;7.03;79.67;97143.34;5093314;28;20100;-68
2021/11/15 04:17:58;;;;;;;31.33;21.40;;;;;;;7.03;79.65;97148.56;5093281;28;20485;-65
2021/11/15 04:20:26;;;;;;;34.75;22.08;;;;;;;7.03;79.72;97143.34;5093015;28;20047;-64
2021/11/15 04:22:52;;;;;;;31.50;24.05;;;;;;;7.05;79.54;97152.84;5093091;28;20025;-67
2021/11/15 04:25:17;;;;;;;33.53;20.77;;;;;;;7.00;79.59;97154.69;5093318;28;20027;-67
2021/11/15 04:27:43;;;;;;;27.73;19.80;;;;;;;6.93;80.29;97146.06;5093279;28;20471;-66
2021/11/15 04:30:12;;;;;;;33.05;24.13;;;;;;;6.89;80.25;97141.81;5093181;28;20028;-64
2021/11/15 04:32:42;;;;;;;28.30;21.52;;;;;;;6.88;80.38;97147.91;5091810;28;20031;-68
2021/11/15 04:35:09;;;;;;;30.00;21.50;;;;;;;6.95;80.60;97159.06;5093068;28;20057;-68
2021/11/15 04:37:36;;;;;;;30.20;21.77;;;;;;;6.92;80.52;97153.91;5092953;28;20567;-66
2021/11/15 04:40:02;;;;;;;27.80;21.60;;;;;;;6.89;80.72;97156.56;5092999;28;20466;-67
2021/11/15 04:42:28;;;;;;;32.58;22.55;;;;;;;6.89;80.73;97157.41;5092928;28;20093;-64
2021/11/15 04:44:53;;;;;;;33.75;22.92;;;;;;;6.83;81.23;97157.50;5092928;28;20032;-66
2021/11/15 04:47:20;;;;;;;45.35;34.97;;;;;;;6.78;81.15;97162.78;5092978;28;20028;-65
2021/11/15 04:49:46;;;;;;;33.22;24.83;;;;;;;6.76;81.38;97161.06;5092968;28;20047;-64
2021/11/15 04:52:11;;;;;;;34.50;25.38;;;;;;;6.81;81.08;97164.47;5093019;28;20462;-63
2021/11/15 04:54:37;;;;;;;32.47;24.98;;;;;;;6.83;80.84;97168.75;5093044;28;20024;-67
2021/11/15 04:57:03;;;;;;;30.75;21.88;;;;;;;6.85;81.06;97167.88;5093836;28;20023;-66
2021/11/15 04:59:28;;;;;;;30.30;21.58;;;;;;;6.88;80.98;97178.25;5096800;28;20466;-65
2021/11/15 05:01:54;;;;;;;29.70;20.88;;;;;;;6.88;80.87;97186.91;5096735;28;20020;-65
2021/11/15 05:04:20;;;;;;;28.80;20.83;;;;;;;6.87;80.79;97179.13;5096599;28;20066;-62
2021/11/15 05:06:45;;;;;;;30.85;21.23;;;;;;;6.92;80.71;97196.41;5096733;28;20027;-67
2021/11/15 05:09:11;;;;;;;28.05;20.13;;;;;;;6.90;80.68;97190.38;5096514;28;20107;-65
2021/11/15 05:11:36;;;;;;;32.60;21.30;;;;;;;6.92;80.67;97196.41;5095283;28;20031;-64
2021/11/15 05:14:02;;;;;;;27.65;20.83;;;;;;;6.95;80.96;97192.88;5096509;28;20016;-62
2021/11/15 05:16:27;;;;;;;30.55;22.02;;;;;;;6.94;80.97;97204.19;5096437;28;20461;-64
2021/11/15 05:18:53;;;;;;;30.80;21.98;;;;;;;6.95;80.82;97201.56;5096147;28;20040;-63
2021/11/15 05:21:19;;;;;;;30.50;19.38;;;;;;;6.94;80.64;97207.66;5096391;28;20034;-66
2021/11/15 05:23:45;;;;;;;31.35;18.70;;;;;;;6.91;80.77;97214.63;5096292;28;20039;-62
2021/11/15 05:26:11;;;;;;;24.08;18.45;;;;;;;6.95;80.96;97224.09;5096243;28;20016;-63
2021/11/15 05:28:37;;;;;;;31.90;20.23;;;;;;;6.94;81.18;97220.66;5096336;28;20031;-64
2021/11/15 05:31:03;;;;;;;27.73;18.70;;;;;;;6.98;81.12;97228.41;5096207;28;20027;-62
2021/11/15 05:33:29;;;;;;;26.17;19.73;;;;;;;7.00;80.60;97232.72;5096081;28;20367;-63
2021/11/15 05:35:55;;;;;;;26.38;18.45;;;;;;;7.02;80.54;97237.91;5096047;28;20015;-64
2021/11/15 05:38:20;;;;;;;27.67;19.10;;;;;;;7.02;80.64;97237.91;5096141;28;20078;-65
2021/11/15 05:40:47;;;;;;;30.95;20.60;;;;;;;7.02;80.76;97238.78;5096105;28;20538;-62
2021/11/15 05:43:13;;;;;;;28.50;20.00;;;;;;;7.05;80.69;97238.72;5095883;28;20036;-61
2021/11/15 05:45:38;;;;;;;28.25;19.63;;;;;;;7.04;80.70;97252.59;5095941;28;20379;-64
2021/11/15 05:48:04;;;;;;;25.35;18.85;;;;;;;7.05;80.72;97245.69;5095598;28;20048;-64
2021/11/15 05:50:30;;;;;;;25.38;18.88;;;;;;;7.02;81.01;97248.31;5095700;28;20016;-63
2021/11/15 05:52:56;;;;;;;30.83;19.80;;;;;;;7.03;81.11;97243.09;5095830;28;20085;-66
2021/11/15 05:55:24;;;;;;;26.90;19.08;;;;;;;7.08;81.20;97254.28;5095649;28;20035;-61
2021/11/15 05:57:51;;;;;;;30.40;19.50;;;;;;;7.09;81.15;97252.56;5095797;28;20059;-66
2021/11/15 06:00:20;;;;;;;24.85;16.65;;;;;;;7.12;81.31;97254.25;5095877;28;20020;-66
2021/11/15 06:02:46;;;;;;;23.92;16.73;;;;;;;7.15;80.90;97262.88;5095488;28;20389;-66
2021/11/15 06:05:12;;;;;;;22.45;16.88;;;;;;;7.14;81.03;97263.78;5095557;28;20035;-65
2021/11/15 06:07:38;;;;;;;21.90;17.60;;;;;;;7.15;81.08;97268.09;5095041;28;20020;-65
2021/11/15 06:10:08;;;;;;;24.10;18.13;;;;;;;7.18;81.27;97268.06;5095324;28;20047;-63
2021/11/15 06:12:35;;;;;;;23.03;16.73;;;;;;;7.24;81.06;97274.03;5095446;28;20028;-64
2021/11/15 06:15:01;;;;;;;24.83;18.45;;;;;;;7.27;80.86;97271.41;5095290;28;20024;-64
2021/11/15 06:17:27;;;;;;;24.95;19.45;;;;;;;7.31;80.83;97279.16;5095239;28;20537;-62
2021/11/15 06:19:52;;;;;;;27.42;19.88;;;;;;;7.37;81.02;97274.78;5095215;28;20154;-66
2021/11/15 06:22:18;;;;;;;25.27;18.80;;;;;;;7.41;81.20;97285.09;5095077;28;20012;-67
2021/11/15 06:24:47;;;;;;;25.42;20.00;;;;;;;7.46;80.90;97285.03;5095097;28;20039;-64
2021/11/15 06:27:17;;;;;;;30.23;20.33;;;;;;;7.51;80.82;97279.78;5095060;28;20032;-66
2021/11/15 06:29:44;;;;;;;29.27;21.95;;;;;;;7.56;80.26;97281.41;5095133;28;20035;-67
2021/11/15 06:32:10;;;;;;;28.13;21.58;;;;;;;7.61;79.97;97285.72;5095142;28;20028;-67
2021/11/15 06:34:36;;;;;;;32.53;23.80;;;;;;;7.63;79.89;97296.97;5095060;28;20030;-66
2021/11/15 06:37:03;;;;;;;29.80;21.67;;;;;;;7.67;80.26;97290.81;5094948;28;20065;-64
2021/11/15 06:39:28;;;;;;;34.47;24.30;;;;;;;7.73;80.40;97292.50;5094836;28;20039;-65
2021/11/15 06:41:56;;;;;;;30.67;22.35;;;;;;;7.76;79.91;97298.50;5094844;28;20016;-65
2021/11/15 06:44:22;;;;;;;30.00;22.42;;;;;;;7.81;79.53;97301.06;5094765;28;20538;-66
2021/11/15 06:46:49;;;;;;;29.15;22.30;;;;;;;7.83;78.98;97304.50;5094612;28;20050;-63
2021/11/15 06:49:15;;;;;;;34.83;22.88;;;;;;;7.86;79.14;97301.00;5094588;28;20020;-67
2021/11/15 06:51:42;;;;;;;30.65;21.90;;;;;;;7.89;78.86;97308.75;5094678;28;20134;-66
2021/11/15 06:54:09;;;;;;;30.38;21.98;;;;;;;7.94;78.92;97312.16;5094590;28;20023;-64
2021/11/15 06:56:35;;;;;;;29.60;21.70;;;;;;;8.01;78.30;97307.72;5094581;28;20410;-65
2021/11/15 06:59:01;;;;;;;32.33;22.30;;;;;;;8.07;78.05;97311.06;5094244;28;20028;-66
2021/11/15 07:01:27;;;;;;;35.05;21.02;;;;;;;8.14;78.11;97319.66;5094414;28;20385;-65
2021/11/15 07:03:53;;;;;;;31.42;21.00;;;;;;;8.20;77.57;97316.97;5094504;28;20024;-66
2021/11/15 07:06:20;;;;;;;29.90;21.50;;;;;;;8.26;77.26;97316.00;5094446;28;20421;-65
2021/11/15 07:08:47;;;;;;;26.40;20.48;;;;;;;8.28;77.55;97315.97;5094302;28;20016;-63
2021/11/15 07:11:13;;;;;;;29.70;21.83;;;;;;;8.32;77.67;97315.91;5094191;28;20031;-65
2021/11/15 07:13:40;;;;;;;30.27;21.55;;;;;;;8.38;77.67;97317.56;5094313;28;20016;-66
2021/11/15 07:16:07;;;;;;;29.48;20.55;;;;;;;8.44;77.83;97312.22;5094137;28;20024;-66
2021/11/15 07:18:33;;;;;;;30.50;22.73;;;;;;;8.51;77.60;97307.75;5093845;28;20592;-66
2021/11/15 07:21:00;;;;;;;31.25;22.27;;;;;;;8.54;77.96;97304.25;5093203;28;20031;-64
2021/11/15 07:23:26;;;;;;;30.25;21.45;;;;;;;8.61;78.16;97311.09;5092806;28;20491;-64
2021/11/15 07:25:54;;;;;;;29.85;21.63;;;;;;;8.71;77.85;97310.06;5093859;28;20135;-65
2021/11/15 07:28:22;;;;;;;27.08;21.25;;;;;;;8.79;77.97;97309.06;5093984;28;20028;-65
2021/11/15 07:30:54;;;;;;;26.92;20.75;;;;;;;8.83;77.90;97305.50;5093965;28;20020;-67
2021/11/15 07:33:33;;;;;;;29.52;21.38;;;;;;;8.91;76.99;97314.03;5093665;28;20054;-64
2021/11/15 07:36:00;;;;;;;28.60;21.63;;;;;;;8.98;76.25;97313.00;5094081;28;20461;-63
2021/11/15 07:38:26;;;;;;;30.83;22.92;;;;;;;9.05;76.64;97318.13;5093784;28;20024;-65
2021/11/15 07:40:54;;;;;;;28.25;20.85;;;;;;;9.08;76.74;97318.06;5093696;28;20028;-62
2021/11/15 07:43:23;;;;;;;27.48;21.42;;;;;;;9.14;76.50;97310.13;5093499;28;20089;-63
2021/11/15 07:45:54;;;;;;;27.00;21.10;;;;;;;9.20;76.17;97315.22;5093630;28;20497;-67
2021/11/15 07:48:20;;;;;;;26.55;20.98;;;;;;;9.14;76.34;97319.69;5093739;28;20098;-67
2021/11/15 07:50:48;;;;;;;29.58;21.52;;;;;;;9.17;76.57;97317.88;5093490;28;20028;-65
2021/11/15 07:53:16;;;;;;;24.65;19.98;;;;;;;9.18;75.96;97319.59;5093733;28;20020;-66
2021/11/15 07:55:42;;;;;;;21.70;15.88;;;;;;;9.22;73.92;97320.41;5093517;28;20058;-66
2021/11/15 07:58:11;;;;;;;23.02;17.85;;;;;;;9.31;73.35;97320.22;5093403;28;20031;-67
2021/11/15 08:00:38;;;;;;;23.95;18.10;;;;;;;9.39;72.50;97319.22;5093321;28;20024;-62
2021/11/15 08:03:06;;;;;;;18.27;13.55;;;;;;;9.45;69.54;97321.69;5093259;28;20073;-66
2021/11/15 08:05:33;;;;;;;16.88;12.73;;;;;;;9.43;69.06;97328.69;5093456;28;20032;-66
2021/11/15 08:08:00;;;;;;;20.30;13.27;;;;;;;9.39;69.12;97319.22;5093299;28;20035;-67
2021/11/15 08:10:27;;;;;;;21.58;13.27;;;;;;;9.47;69.33;97325.13;5093254;28;20059;-65
2021/11/15 08:12:56;;;;;;;17.50;13.00;;;;;;;9.55;68.53;97325.84;5092932;28;20494;-65
2021/11/15 08:15:26;;;;;;;17.67;12.90;;;;;;;9.57;68.25;97331.03;5093249;28;20095;-64
2021/11/15 08:18:00;;;;;;;15.65;12.20;;;;;;;9.63;68.58;97330.03;5093404;28;20032;-65
2021/11/15 08:20:28;;;;;;;15.55;13.02;;;;;;;9.67;68.67;97332.53;5092955;28;20540;-64
2021/11/15 08:23:00;;;;;;;16.95;12.43;;;;;;;9.62;67.10;97331.78;5093122;28;20596;-62
2021/11/15 08:25:26;;;;;;;15.10;11.85;;;;;;;9.68;67.57;97333.38;5093220;28;20028;-62
2021/11/15 08:27:54;;;;;;;14.65;12.13;;;;;;;9.73;67.72;97335.00;5091863;28;20504;-65
2021/11/15 08:30:22;;;;;;;15.48;12.38;;;;;;;9.82;67.69;97330.47;5093200;28;20060;-64
2021/11/15 08:32:49;;;;;;;16.45;12.32;;;;;;;9.89;67.80;97331.19;5097281;28;20482;-63
2021/11/15 08:35:22;;;;;;;14.18;11.65;;;;;;;10.02;66.33;97332.63;5097242;28;20032;-65
2021/11/15 08:38:15;;;;;;;15.90;11.90;;;;;;;10.10;66.39;97338.56;5097275;28;20028;-66
2021/11/15 08:40:52;;;;;;;14.55;11.02;;;;;;;10.22;64.20;97333.91;5097147;28;20047;-68
2021/11/15 08:43:21;;;;;;;17.65;11.13;;;;;;;10.22;63.84;97331.31;5097040;28;20044;-64
2021/11/15 08:45:47;;;;;;;17.73;11.02;;;;;;;10.32;64.36;97334.53;5096997;28;20079;-67
2021/11/15 08:48:14;;;;;;;11.55;10.30;;;;;;;10.29;63.00;97330.25;5097125;28;20409;-66
2021/11/15 08:50:41;;;;;;;15.07;11.10;;;;;;;10.36;64.25;97339.66;5096924;28;20020;-62
2021/11/15 08:53:07;;;;;;;15.95;11.10;;;;;;;10.34;63.41;97327.53;5097086;28;20028;-67
2021/11/15 08:55:34;;;;;;;13.27;10.63;;;;;;;10.42;63.48;97333.41;5097066;28;20034;-64
2021/11/15 08:58:02;;;;;;;17.92;10.73;;;;;;;10.54;62.60;97331.44;5096781;28;20038;-67
2021/11/15 09:00:29;;;;;;;14.43;10.23;;;;;;;10.65;61.51;97329.41;5097043;28;20103;-67
2021/11/15 09:02:56;;;;;;;14.18;10.75;;;;;;;10.71;63.09;97333.63;5096630;28;20056;-64
2021/11/15 09:05:23;;;;;;;17.70;11.35;;;;;;;10.79;62.41;97328.19;5095412;28;20033;-64
2021/11/15 09:07:51;;;;;;;14.40;10.32;;;;;;;10.93;61.38;97328.66;5096756;28;20430;-63
2021/11/15 09:10:18;;;;;;;17.95;10.23;;;;;;;10.98;61.74;97337.28;5096562;28;20470;-65
2021/11/15 09:12:46;;;;;;;17.13;10.95;;;;;;;10.96;62.29;97333.00;5096569;28;20051;-65
2021/11/15 09:15:19;;;;;;;13.70;10.07;;;;;;;11.06;61.13;97330.97;5096531;28;20024;-66
2021/11/15 09:17:46;;;;;;;11.57;9.25;;;;;;;11.15;60.18;97338.56;5096583;28;20477;-63
2021/11/15 09:20:13;;;;;;;13.98;10.52;;;;;;;11.21;60.91;97335.78;5096118;28;20048;-62
2021/11/15 09:22:43;;;;;;;10.70;9.23;;;;;;;11.11;60.42;97329.94;5096374;28;20417;-68
2021/11/15 09:25:11;;;;;;;13.07;9.30;;;;;;;11.11;59.34;97336.94;5096372;28;20048;-64
2021/11/15 09:27:41;;;;;;;10.15;9.05;;;;;;;11.08;59.58;97327.41;5096314;28;20038;-67
2021/11/15 09:30:13;;;;;;;11.77;9.00;;;;;;;11.08;59.74;97329.19;5096321;28;20020;-66
2021/11/15 09:32:42;;;;;;;12.80;8.90;;;;;;;11.08;59.60;97319.53;5096291;28;20326;-62
2021/11/15 09:35:09;;;;;;;10.75;9.32;;;;;;;11.15;59.81;97314.13;5096085;28;20031;-63
2021/11/15 09:37:36;;;;;;;10.65;8.70;;;;;;;11.24;58.65;97319.13;5095994;28;20107;-66
2021/11/15 09:40:08;;;;;;;14.25;10.75;;;;;;;11.28;59.29;97318.13;5096022;28;20077;-66
2021/11/15 09:42:36;;;;;;;12.68;9.60;;;;;;;11.38;59.18;97313.50;5095007;28;20563;-68
2021/11/15 09:45:06;;;;;;;15.40;9.02;;;;;;;11.35;58.07;97316.22;5096051;28;20382;-65
2021/11/15 09:47:40;;;;;;;11.57;9.10;;;;;;;11.42;58.78;97315.13;5095953;28;20109;-66
2021/11/15 09:50:10;;;;;;;19.02;10.35;;;;;;;11.51;59.30;97314.00;5095865;28;20028;-68
2021/11/15 09:52:39;;;;;;;14.50;10.23;;;;;;;11.50;59.37;97314.91;5095779;28;20118;-67
2021/11/15 09:55:13;;;;;;;12.90;9.95;;;;;;;11.57;58.32;97313.81;5095873;28;20285;-65
2021/11/15 09:57:43;;;;;;;11.43;8.70;;;;;;;11.61;57.63;97311.94;5095706;28;20028;-64
2021/11/15 10:00:15;;;;;;;10.27;8.55;;;;;;;11.65;56.09;97307.50;5095754;28;20111;-65
2021/11/15 10:02:56;;;;;;;13.00;9.73;;;;;;;11.73;56.49;97306.34;5094338;28;20394;-64
2021/11/15 10:05:23;;;;;;;9.90;8.73;;;;;;;11.88;56.87;97307.66;5095742;28;20024;-59
2021/11/15 10:07:56;;;;;;;12.38;8.98;;;;;;;12.09;55.08;97300.03;5096011;28;20068;-65
2021/11/15 10:10:34;;;;;;;9.75;7.60;;;;;;;12.22;53.30;97313.59;5094247;28;20047;-64
2021/11/15 10:13:30;;;;;;;12.70;8.63;;;;;;;12.32;55.20;97313.31;5095449;28;20107;-61
2021/11/15 10:16:21;;;;;;;13.50;8.52;;;;;;;12.15;55.08;97314.72;5095120;28;20411;-62
2021/11/15 10:18:58;;;;;;;13.82;9.27;;;;;;;11.97;56.65;97313.50;5095143;28;20040;-63
2021/11/15 10:21:42;;;;;;;17.23;9.85;;;;;;;11.91;55.73;97314.53;5095305;28;20034;-64
2021/11/15 10:24:15;;;;;;;12.73;9.05;;;;;;;11.77;56.31;97311.50;5095042;28;20111;-64
2021/11/15 10:26:58;;;;;;;14.68;10.57;;;;;;;11.63;56.74;97315.41;5095167;28;20118;-65
2021/11/15 10:29:39;;;;;;;15.90;10.73;;;;;;;11.58;58.21;97318.16;5094992;28;20385;-67
2021/11/15 10:32:19;;;;;;;12.02;10.07;;;;;;;11.57;57.76;97316.44;5095120;28;20497;-64
2021/11/15 10:34:55;;;;;;;12.85;10.18;;;;;;;11.67;57.58;97313.53;5095091;28;20032;-61
2021/11/15 10:37:29;;;;;;;11.95;9.88;;;;;;;11.69;57.92;97314.34;5095078;28;20084;-67
2021/11/15 10:40:18;;;;;;;11.80;9.32;;;;;;;11.68;57.54;97318.72;5094887;28;20485;-68
2021/11/15 10:42:51;;;;;;;16.88;11.80;;;;;;;11.61;57.68;97314.56;5094647;28;20126;-65
2021/11/15 10:45:23;;;;;;;12.63;9.32;;;;;;;11.57;57.20;97321.69;5094993;28;20036;-64
2021/11/15 10:48:07;;;;;;;12.65;10.07;;;;;;;11.59;57.55;97325.09;5094842;28;20473;-67
2021/11/15 10:50:53;;;;;;;16.88;11.30;;;;;;;11.52;57.65;97326.19;5093421;28;20469;-67
2021/11/15 10:53:57;;;;;;;15.65;10.73;;;;;;;11.45;57.71;97322.91;5094646;28;20040;-62
2021/11/15 10:56:35;;;;;;;19.25;10.73;;;;;;;11.54;57.87;97319.16;5094590;28;20028;-65
2021/11/15 10:59:15;;;;;;;16.73;11.85;;;;;;;11.67;58.09;97324.88;5094509;28;20478;-63
2021/11/15 11:01:45;;;;;;;13.48;8.77;;;;;;;11.71;56.74;97330.91;5094418;28;20040;-66
2021/11/15 11:04:23;;;;;;;11.60;8.60;;;;;;;11.72;56.19;97328.22;5094283;28;20492;-66
2021/11/15 11:07:09;;;;;;;10.98;8.75;;;;;;;11.80;57.29;97322.72;5094394;28;20024;-66
2021/11/15 11:09:40;;;;;;;14.23;9.48;;;;;;;11.90;56.44;97320.72;5094298;28;20043;-64
2021/11/15 11:12:21;;;;;;;10.52;8.20;;;;;;;11.84;56.43;97323.50;5094196;28;20489;-61
2021/11/15 11:14:51;;;;;;;13.30;8.00;;;;;;;11.73;56.48;97329.94;5094248;28;20497;-64
2021/11/15 11:17:19;;;;;;;8.48;7.50;;;;;;;11.62;55.93;97325.00;5094244;28;20032;-65
2021/11/15 11:20:28;;;;;;;7.88;6.88;;;;;;;11.49;56.06;97327.13;5093860;28;20081;-64
2021/11/15 11:26:17;;;;;;;10.55;7.00;;;;;;;11.34;57.37;97333.69;5083226;28;20036;-62
2021/11/15 11:28:48;;;;;;;9.52;6.72;;;;;;;11.34;57.55;97333.69;5093948;28;20127;-66
2021/11/15 11:31:23;;;;;;;11.38;7.90;;;;;;;11.38;57.68;97334.47;5094041;28;20039;-65
2021/11/15 11:33:48;;;;;;;12.45;7.18;;;;;;;11.40;57.13;97334.38;5094051;28;20025;-67